Terminal Aerodrome Forecast
Issued by NWS

Home | Current Version | Previous Version | Text Only | Print | Product List | Glossary On
Versions: 1 2 3 4 5 6 7 8 9 10 11 12 13 14 15 16 17
000
FTAK31 PAJN 302300
TAFAYA
TAF
PAYA 302327Z 3100/3124 09004KT P6SM VCSH SCT022 OVC035
      TEMPO 3100/3103 -SHRA BKN022
     FM310700 06005KT P6SM SKC
      AMD LTD TO CLD VIS AND WIND 3101/3110=

USA.gov is the U.S. government's official web portal to all federal, state and local government web resources and services.